createdAt,value
2023-03-06T00:00:06.835Z,24.4
2023-03-06T00:01:08.730Z,24.4
2023-03-06T00:02:10.659Z,24.4
2023-03-06T00:03:12.479Z,24.4
2023-03-06T00:04:14.415Z,24.4
2023-03-06T00:05:16.294Z,24.4
2023-03-06T00:06:18.182Z,24.4
2023-03-06T00:07:20.099Z,24.4
2023-03-06T00:08:21.960Z,24.4
2023-03-06T00:09:23.788Z,24.4
2023-03-06T00:10:25.646Z,24.4
2023-03-06T00:11:27.505Z,24.4
2023-03-06T00:12:29.340Z,24.4
2023-03-06T00:13:31.229Z,24.4
2023-03-06T00:14:33.144Z,24.4
2023-03-06T00:15:35.004Z,24.4
2023-03-06T00:16:36.759Z,24.4
2023-03-06T00:17:38.929Z,24.4
2023-03-06T00:18:40.785Z,24.4
2023-03-06T00:19:42.597Z,24.4
2023-03-06T00:20:44.455Z,24.4
2023-03-06T00:21:46.160Z,24.4
2023-03-06T00:22:48.046Z,24.4
2023-03-06T00:23:49.954Z,24.4
2023-03-06T00:24:51.868Z,24.4
2023-03-06T00:25:53.641Z,24.4
2023-03-06T00:26:55.585Z,24.4
2023-03-06T00:27:57.283Z,24.4
2023-03-06T00:28:59.556Z,24.4
2023-03-06T00:30:01.421Z,24.4
2023-03-06T00:31:03.354Z,24.4
2023-03-06T00:32:05.282Z,24.4
2023-03-06T00:33:07.297Z,24.4
2023-03-06T00:34:09.253Z,24.4
2023-03-06T00:35:11.174Z,24.4
2023-03-06T00:36:13.013Z,24.4
2023-03-06T00:37:14.840Z,24.4
2023-03-06T00:38:16.722Z,24.4
2023-03-06T00:39:18.562Z,24.4
2023-03-06T00:40:20.413Z,24.4
2023-03-06T00:41:22.269Z,24.4
2023-03-06T00:42:24.192Z,24.3
2023-03-06T00:43:25.968Z,24.4
2023-03-06T00:44:27.813Z,24.4
2023-03-06T00:45:29.693Z,24.4
2023-03-06T00:46:32.035Z,24.4
2023-03-06T00:47:33.889Z,24.4
2023-03-06T00:48:35.731Z,24.4
2023-03-06T00:49:37.587Z,24.4
2023-03-06T00:50:42.113Z,24.4
2023-03-06T00:51:43.945Z,24.4
2023-03-06T00:52:45.831Z,24.4
2023-03-06T00:53:47.646Z,24.4
2023-03-06T00:54:49.358Z,24.4
2023-03-06T00:55:51.139Z,24.4
2023-03-06T00:56:52.917Z,24.4
2023-03-06T00:57:54.880Z,24.4
2023-03-06T00:58:56.845Z,24.4
2023-03-06T00:59:58.743Z,24.4
2023-03-06T01:01:00.625Z,24.4
2023-03-06T01:02:02.901Z,24.4
2023-03-06T01:03:05.188Z,24.4
2023-03-06T01:04:07.284Z,24.4
2023-03-06T01:05:09.154Z,24.4
2023-03-06T01:06:11.070Z,24.4
2023-03-06T01:07:12.815Z,24.4
2023-03-06T01:08:14.667Z,24.4
2023-03-06T01:09:16.463Z,24.4
2023-03-06T01:10:18.427Z,24.4
2023-03-06T01:11:20.315Z,24.4
2023-03-06T01:12:23.439Z,24.4
2023-03-06T01:13:25.452Z,24.4
2023-03-06T01:14:27.203Z,24.4
2023-03-06T01:15:28.973Z,24.4
2023-03-06T01:16:30.851Z,24.4
2023-03-06T01:17:32.943Z,24.4
2023-03-06T01:18:34.698Z,24.4
2023-03-06T01:19:36.601Z,24.4
2023-03-06T01:20:38.509Z,24.4
2023-03-06T01:21:40.347Z,24.4
2023-03-06T01:22:42.106Z,24.4
2023-03-06T01:23:43.925Z,24.4
2023-03-06T01:24:45.818Z,24.4
2023-03-06T01:25:47.687Z,24.4
2023-03-06T01:26:49.612Z,24.4
2023-03-06T01:27:51.375Z,24.3
2023-03-06T01:28:53.206Z,24.4
2023-03-06T01:29:55.042Z,24.4
2023-03-06T01:30:56.960Z,24.4
2023-03-06T01:31:58.906Z,24.4
2023-03-06T01:33:01.209Z,24.4
2023-03-06T01:34:03.093Z,24.4
2023-03-06T01:35:04.937Z,24.4
2023-03-06T01:36:06.769Z,24.4
2023-03-06T01:37:08.535Z,24.4
2023-03-06T01:38:10.434Z,24.4
2023-03-06T01:39:12.287Z,24.4
2023-03-06T01:40:14.172Z,24.4
2023-03-06T01:41:16.066Z,24.4
2023-03-06T01:42:17.964Z,24.4
2023-03-06T01:43:19.847Z,24.4
2023-03-06T01:44:21.594Z,24.4
2023-03-06T01:45:23.413Z,24.4
2023-03-06T01:46:25.264Z,24.4
2023-03-06T01:47:27.361Z,24.4
2023-03-06T01:48:31.900Z,24.4
2023-03-06T01:49:33.819Z,24.4
2023-03-06T01:50:35.675Z,24.3
2023-03-06T01:51:37.590Z,24.3
2023-03-06T01:52:39.439Z,24.3
2023-03-06T01:53:41.226Z,24.3
2023-03-06T01:54:43.206Z,24.3
2023-03-06T01:55:45.090Z,24.3
2023-03-06T01:56:46.837Z,24.3
2023-03-06T01:57:48.679Z,24.3
2023-03-06T01:58:50.548Z,24.3
2023-03-06T01:59:52.353Z,24.3
2023-03-06T02:00:54.309Z,24.3
2023-03-06T02:01:56.368Z,24.3
2023-03-06T02:02:58.366Z,24.3
2023-03-06T02:04:00.200Z,24.3
2023-03-06T02:05:02.130Z,24.3
2023-03-06T02:06:04.022Z,24.3
2023-03-06T02:07:05.856Z,24.3
2023-03-06T02:08:07.748Z,24.3
2023-03-06T02:09:09.600Z,24.3
2023-03-06T02:10:11.515Z,24.3
2023-03-06T02:11:13.406Z,24.3
2023-03-06T02:12:15.617Z,24.3
2023-03-06T02:13:17.498Z,24.3
2023-03-06T02:14:19.384Z,24.3
2023-03-06T02:15:21.211Z,24.2
2023-03-06T02:16:23.138Z,24.2
2023-03-06T02:17:25.018Z,24.3
2023-03-06T02:18:26.932Z,24.2
2023-03-06T02:19:28.771Z,24.2
2023-03-06T02:20:30.705Z,24.2
2023-03-06T02:21:32.514Z,24.3
2023-03-06T02:22:34.525Z,24.3
2023-03-06T02:23:36.383Z,24.3
2023-03-06T02:24:38.202Z,24.2
2023-03-06T02:25:40.158Z,24.2
2023-03-06T02:26:42.026Z,24.2
2023-03-06T02:27:43.876Z,24.2
2023-03-06T02:28:45.906Z,24.2
2023-03-06T02:29:47.786Z,24.2
2023-03-06T02:30:49.712Z,24.2
2023-03-06T02:31:51.829Z,24.2
2023-03-06T02:32:53.648Z,24.2
2023-03-06T02:33:55.430Z,24.2
2023-03-06T02:34:57.343Z,24.2
2023-03-06T02:35:59.221Z,24.2
2023-03-06T02:37:01.455Z,24.2
2023-03-06T02:38:03.310Z,24.2
2023-03-06T02:39:05.127Z,24.2
2023-03-06T02:40:07.100Z,24.2
2023-03-06T02:41:08.936Z,24.2
2023-03-06T02:42:10.812Z,24.2
2023-03-06T02:43:12.555Z,24.2
2023-03-06T02:44:14.404Z,24.2
2023-03-06T02:45:16.251Z,24.2
2023-03-06T02:46:18.058Z,24.2
2023-03-06T02:47:20.058Z,24.2
2023-03-06T02:48:22.038Z,24.2
2023-03-06T02:49:26.119Z,24.1
2023-03-06T02:50:28.370Z,24.1
2023-03-06T02:51:30.220Z,24.1
2023-03-06T02:52:32.122Z,24.1
2023-03-06T02:53:34.029Z,24.1
2023-03-06T02:54:35.877Z,24.2
2023-03-06T02:55:37.627Z,24.1
2023-03-06T02:56:39.468Z,24.1
2023-03-06T02:57:41.342Z,24.1
2023-03-06T02:58:43.171Z,24.1
2023-03-06T02:59:45.023Z,24.1
2023-03-06T03:00:46.868Z,24.1
2023-03-06T03:01:48.828Z,24.1
2023-03-06T03:02:51.071Z,24.1
2023-03-06T03:03:52.987Z,24.1
2023-03-06T03:04:55.006Z,24.1
2023-03-06T03:05:57.241Z,24.1
2023-03-06T03:06:59.125Z,24.1
2023-03-06T03:08:01.118Z,24.1
2023-03-06T03:09:03.218Z,24.1
2023-03-06T03:10:05.053Z,24.1
2023-03-06T03:11:06.907Z,24.1
2023-03-06T03:12:08.754Z,24.1
2023-03-06T03:13:10.666Z,24.1
2023-03-06T03:14:12.552Z,24.1
2023-03-06T03:15:14.411Z,24.1
2023-03-06T03:16:16.283Z,24.1
2023-03-06T03:17:18.530Z,24
2023-03-06T03:18:20.414Z,24.1
2023-03-06T03:19:22.312Z,24
2023-03-06T03:20:24.174Z,24.1
2023-03-06T03:21:25.941Z,24
2023-03-06T03:22:27.762Z,24.1
2023-03-06T03:23:32.377Z,24
2023-03-06T03:24:34.360Z,24.1
2023-03-06T03:25:36.287Z,24
2023-03-06T03:26:38.069Z,24
2023-03-06T03:27:39.984Z,24
2023-03-06T03:28:41.836Z,24.1
2023-03-06T03:29:43.741Z,24.1
2023-03-06T03:30:45.676Z,24.1
2023-03-06T03:31:47.745Z,24.1
2023-03-06T03:32:49.574Z,24.1
2023-03-06T03:33:51.398Z,24
2023-03-06T03:34:53.314Z,24
2023-03-06T03:35:55.205Z,24
2023-03-06T03:36:57.144Z,24
2023-03-06T03:37:58.951Z,24
2023-03-06T03:39:00.772Z,24
2023-03-06T03:40:02.672Z,24
2023-03-06T03:41:04.484Z,24
2023-03-06T03:42:06.406Z,24
2023-03-06T03:43:08.146Z,24
2023-03-06T03:44:10.029Z,24
2023-03-06T03:45:12.032Z,24
2023-03-06T03:46:13.913Z,24
2023-03-06T03:47:15.766Z,24
2023-03-06T03:48:17.607Z,24
2023-03-06T03:49:19.345Z,24
2023-03-06T03:50:21.271Z,24
2023-03-06T03:51:23.149Z,23.9
2023-03-06T03:52:25.062Z,23.9
2023-03-06T03:53:26.853Z,23.9
2023-03-06T03:54:31.227Z,23.9
2023-03-06T03:55:33.137Z,23.8
2023-03-06T03:56:34.962Z,23.6
2023-03-06T03:57:36.786Z,23.5
2023-03-06T03:58:38.684Z,23.4
2023-03-06T03:59:40.513Z,23.3
2023-03-06T04:00:42.265Z,23.2
2023-03-06T04:01:44.190Z,23.1
2023-03-06T04:02:46.059Z,22.9
2023-03-06T04:03:47.914Z,22.8
2023-03-06T04:04:49.788Z,22.8
2023-03-06T04:05:51.716Z,22.8
2023-03-06T04:06:53.515Z,22.8
2023-03-06T04:07:55.406Z,22.8
2023-03-06T04:08:57.250Z,22.8
2023-03-06T04:09:59.159Z,22.7
2023-03-06T04:11:01.122Z,22.7
2023-03-06T04:12:03.020Z,22.7
2023-03-06T04:13:04.860Z,22.6
2023-03-06T04:14:06.714Z,22.6
2023-03-06T04:15:08.568Z,22.5
2023-03-06T04:16:10.484Z,22.5
2023-03-06T04:17:12.474Z,22.5
2023-03-06T04:18:14.319Z,22.5
2023-03-06T04:19:16.079Z,22.5
2023-03-06T04:20:17.913Z,22.4
2023-03-06T04:21:19.836Z,22.4
2023-03-06T04:22:21.723Z,22.3
2023-03-06T04:23:23.574Z,22.3
2023-03-06T04:24:25.420Z,22.3
2023-03-06T04:25:27.289Z,22.3
2023-03-06T04:26:29.184Z,22.3
2023-03-06T04:27:31.172Z,22.3
2023-03-06T04:28:32.919Z,22.3
2023-03-06T04:29:34.776Z,22.3
2023-03-06T04:30:36.626Z,22.4
2023-03-06T04:31:38.774Z,22.4
2023-03-06T04:32:40.998Z,22.4
2023-03-06T04:33:43.250Z,22.3
2023-03-06T04:34:45.228Z,22.3
2023-03-06T04:35:47.130Z,22.2
2023-03-06T04:36:49.156Z,22.3
2023-03-06T04:37:50.893Z,22.3
2023-03-06T04:38:52.632Z,22.2
2023-03-06T04:39:54.820Z,22.2
2023-03-06T04:40:56.692Z,22.1
2023-03-06T04:41:59.003Z,22.1
2023-03-06T04:43:01.391Z,22.2
2023-03-06T04:44:03.252Z,22.1
2023-03-06T04:45:05.126Z,22.1
2023-03-06T04:46:07.084Z,22.1
2023-03-06T04:47:09.305Z,22
2023-03-06T04:48:11.045Z,22
2023-03-06T04:49:12.941Z,22
2023-03-06T04:50:14.720Z,22
2023-03-06T04:51:16.469Z,22
2023-03-06T04:52:18.427Z,22
2023-03-06T04:53:20.310Z,22
2023-03-06T04:54:22.060Z,22
2023-03-06T04:55:23.895Z,22
2023-03-06T04:56:26.594Z,21.9
2023-03-06T04:57:28.458Z,21.9
2023-03-06T04:58:30.429Z,21.9
2023-03-06T04:59:32.316Z,21.9
2023-03-06T05:00:34.294Z,21.9
2023-03-06T05:01:36.122Z,21.9
2023-03-06T05:02:38.038Z,21.9
2023-03-06T05:03:39.925Z,21.9
2023-03-06T05:04:42.076Z,21.9
2023-03-06T05:05:43.861Z,21.9
2023-03-06T05:06:45.687Z,22.1
2023-03-06T05:07:47.518Z,22.1
2023-03-06T05:08:49.354Z,22.1
2023-03-06T05:09:51.235Z,22.2
2023-03-06T05:10:53.141Z,22.2
2023-03-06T05:11:55.047Z,22.2
2023-03-06T05:12:56.883Z,22.3
2023-03-06T05:13:58.828Z,22.3
2023-03-06T05:15:00.576Z,22.4
2023-03-06T05:16:02.486Z,22.3
2023-03-06T05:17:04.519Z,22.3
2023-03-06T05:18:06.438Z,22.4
2023-03-06T05:19:08.291Z,22.4
2023-03-06T05:20:10.203Z,22.4
2023-03-06T05:21:12.095Z,22.5
2023-03-06T05:22:13.928Z,22.5
2023-03-06T05:23:15.813Z,22.6
2023-03-06T05:24:17.789Z,22.6
2023-03-06T05:25:19.697Z,22.6
2023-03-06T05:26:21.554Z,22.7
2023-03-06T05:27:23.361Z,22.7
2023-03-06T05:28:25.241Z,22.8
2023-03-06T05:29:27.059Z,22.8
2023-03-06T05:30:29.878Z,22.8
2023-03-06T05:31:31.811Z,22.8
2023-03-06T05:32:35.632Z,22.8
2023-03-06T05:33:37.971Z,22.9
2023-03-06T05:34:39.881Z,22.9
2023-03-06T05:35:41.813Z,23
2023-03-06T05:36:43.889Z,23
2023-03-06T05:37:45.859Z,23
2023-03-06T05:38:48.488Z,23
2023-03-06T05:39:50.441Z,23
2023-03-06T05:40:52.366Z,23
2023-03-06T05:41:54.218Z,23
2023-03-06T05:42:56.083Z,23
2023-03-06T05:43:57.966Z,23.1
2023-03-06T05:44:59.859Z,23.1
2023-03-06T05:46:01.672Z,23.1
2023-03-06T05:47:03.972Z,23.1
2023-03-06T05:48:05.618Z,23.1
2023-03-06T05:49:07.404Z,23.2
2023-03-06T05:50:09.316Z,23.2
2023-03-06T05:51:10.979Z,23.2
2023-03-06T05:52:12.824Z,23.2
2023-03-06T05:53:14.708Z,23.2
2023-03-06T05:54:16.680Z,23.2
2023-03-06T05:55:18.567Z,23.2
2023-03-06T05:56:20.331Z,23.2
2023-03-06T05:57:22.063Z,23.2
2023-03-06T05:58:26.582Z,23.3
2023-03-06T05:59:28.450Z,23.3
2023-03-06T06:00:30.389Z,23.3
2023-03-06T06:01:32.235Z,23.3
2023-03-06T06:02:34.093Z,23.3
2023-03-06T06:03:36.397Z,23.3
2023-03-06T06:04:38.291Z,23.3
2023-03-06T06:05:40.142Z,23.3
2023-03-06T06:06:41.905Z,23.4
2023-03-06T06:07:43.752Z,23.5
2023-03-06T06:08:45.452Z,23.5
2023-03-06T06:09:47.330Z,23.5
2023-03-06T06:10:50.989Z,23.6
2023-03-06T06:11:55.225Z,23.6
2023-03-06T06:12:57.043Z,23.7
2023-03-06T06:13:59.042Z,23.7
2023-03-06T06:15:01.008Z,23.8
2023-03-06T06:16:02.937Z,23.8
2023-03-06T06:17:04.900Z,23.8
2023-03-06T06:18:06.757Z,23.9
2023-03-06T06:19:08.588Z,23.9
2023-03-06T06:20:10.503Z,23.9
2023-03-06T06:21:12.213Z,23.9
2023-03-06T06:22:14.147Z,24
2023-03-06T06:23:15.893Z,24
2023-03-06T06:24:17.734Z,24.1
2023-03-06T06:25:19.658Z,24.1
2023-03-06T06:26:21.455Z,24.1
2023-03-06T06:27:23.195Z,24.1
2023-03-06T06:28:25.004Z,24.2
2023-03-06T06:29:26.973Z,24.2
2023-03-06T06:30:28.877Z,24.2
2023-03-06T06:31:30.826Z,24.3
2023-03-06T06:32:33.047Z,24.3
2023-03-06T06:33:35.110Z,24.3
2023-03-06T06:34:36.742Z,24.3
2023-03-06T06:35:38.524Z,24.4
2023-03-06T06:36:40.418Z,24.4
2023-03-06T06:37:42.306Z,24.4
2023-03-06T06:38:44.000Z,24.4
2023-03-06T06:39:45.900Z,24.4
2023-03-06T06:41:11.618Z,24.5
2023-03-06T06:43:29.443Z,24.6
2023-03-06T06:44:31.406Z,24.7
2023-03-06T06:45:33.306Z,24.7
2023-03-06T06:47:20.571Z,24.7
2023-03-06T06:48:27.845Z,24.8
2023-03-06T06:49:29.706Z,24.8
2023-03-06T06:50:31.533Z,24.9
2023-03-06T06:51:33.351Z,24.9
2023-03-06T06:52:35.342Z,24.9
2023-03-06T06:53:37.189Z,24.9
2023-03-06T06:54:38.837Z,24.9
2023-03-06T06:55:40.638Z,24.9
2023-03-06T06:56:42.476Z,24.9
2023-03-06T06:57:44.385Z,24.9
2023-03-06T06:58:46.240Z,25
2023-03-06T06:59:48.020Z,25
2023-03-06T07:00:50.021Z,25
2023-03-06T07:01:52.124Z,25
2023-03-06T07:02:54.602Z,25
2023-03-06T07:03:56.524Z,25
2023-03-06T07:05:04.471Z,25.1
2023-03-06T07:06:07.521Z,25.1
2023-03-06T07:07:09.424Z,25.1
2023-03-06T07:08:11.190Z,25.1
2023-03-06T07:09:13.041Z,25.1
2023-03-06T07:10:14.884Z,25.2
2023-03-06T07:11:16.612Z,25.2
2023-03-06T07:12:18.485Z,25.2
2023-03-06T07:13:20.226Z,25.3
2023-03-06T07:14:21.976Z,25.3
2023-03-06T07:15:23.791Z,25.4
2023-03-06T07:16:25.844Z,25.4
2023-03-06T07:17:27.723Z,25.4
2023-03-06T07:18:29.473Z,25.5
2023-03-06T07:19:31.218Z,25.5
2023-03-06T07:20:33.010Z,25.5
2023-03-06T07:21:35.020Z,25.5
2023-03-06T07:22:48.623Z,25.5
2023-03-06T07:23:53.734Z,25.6
2023-03-06T07:24:55.550Z,25.6
2023-03-06T07:25:57.374Z,25.6
2023-03-06T07:26:59.333Z,25.7
2023-03-06T07:28:01.230Z,25.7
2023-03-06T07:29:03.837Z,25.7
2023-03-06T07:30:05.606Z,25.7
2023-03-06T07:31:07.519Z,25.7
2023-03-06T07:32:09.728Z,25.7
2023-03-06T07:33:11.844Z,25.7
2023-03-06T07:34:13.525Z,25.7
2023-03-06T07:35:19.974Z,25.6
2023-03-06T07:36:22.733Z,25.6
2023-03-06T07:37:24.554Z,25.6
2023-03-06T07:38:26.254Z,25.6
2023-03-06T07:39:28.022Z,25.6
2023-03-06T07:40:29.878Z,25.6
2023-03-06T07:41:31.819Z,25.6
2023-03-06T07:42:33.747Z,25.6
2023-03-06T07:43:35.589Z,25.6
2023-03-06T07:44:37.501Z,25.6
2023-03-06T07:45:39.858Z,25.6
2023-03-06T07:46:41.736Z,25.6
2023-03-06T07:47:43.944Z,25.6
2023-03-06T07:48:45.635Z,25.6
2023-03-06T07:49:47.388Z,25.6
2023-03-06T07:50:49.265Z,25.6
2023-03-06T07:51:51.049Z,25.7
2023-03-06T07:52:52.890Z,25.7
2023-03-06T07:53:54.720Z,25.7
2023-03-06T07:54:56.470Z,25.7
2023-03-06T07:55:58.123Z,25.7
2023-03-06T07:56:59.955Z,25.8
2023-03-06T07:58:01.749Z,25.8
2023-03-06T07:59:03.596Z,25.8
2023-03-06T08:00:05.397Z,25.8
2023-03-06T08:01:07.024Z,25.9
2023-03-06T08:02:08.905Z,25.9
2023-03-06T08:03:10.770Z,25.9
2023-03-06T08:04:13.112Z,25.9
2023-03-06T08:05:15.365Z,25.9
2023-03-06T08:06:17.325Z,25.9
2023-03-06T08:07:19.058Z,26
2023-03-06T08:08:20.840Z,26
2023-03-06T08:09:22.547Z,26
2023-03-06T08:10:24.297Z,26
2023-03-06T08:11:26.139Z,26
2023-03-06T08:12:27.801Z,26
2023-03-06T08:13:29.547Z,26
2023-03-06T08:14:31.392Z,26.1
2023-03-06T08:15:33.147Z,26.1
2023-03-06T08:16:34.987Z,26.1
2023-03-06T08:17:37.104Z,26.1
2023-03-06T08:18:39.008Z,26.1
2023-03-06T08:19:41.015Z,26.1
2023-03-06T08:20:42.837Z,26.1
2023-03-06T08:21:44.661Z,26.1
2023-03-06T08:22:46.502Z,26.1
2023-03-06T08:23:48.327Z,26.1
2023-03-06T08:24:50.103Z,26.1
2023-03-06T08:25:51.899Z,26.1
2023-03-06T08:26:53.792Z,26.1
2023-03-06T08:27:55.549Z,26.2
2023-03-06T08:28:57.463Z,26.2
2023-03-06T08:29:59.217Z,26.2
2023-03-06T08:31:00.929Z,26.2
2023-03-06T08:32:02.901Z,26.2
2023-03-06T08:33:05.026Z,26.2
2023-03-06T08:34:06.721Z,26.2
2023-03-06T08:35:08.600Z,26.2
2023-03-06T08:36:10.496Z,26.2
2023-03-06T08:37:12.325Z,26.2
2023-03-06T08:38:14.246Z,26.2
2023-03-06T08:39:16.117Z,26.2
2023-03-06T08:40:17.934Z,26.2
2023-03-06T08:41:20.371Z,26.2
2023-03-06T08:42:22.308Z,26.3
2023-03-06T08:43:26.762Z,26.3
2023-03-06T08:44:28.704Z,26.3
2023-03-06T08:45:30.717Z,26.3
2023-03-06T08:46:32.742Z,26.3
2023-03-06T08:47:34.628Z,26.3
2023-03-06T08:48:36.540Z,26.3
2023-03-06T08:49:38.491Z,26.3
2023-03-06T08:50:40.365Z,26.3
2023-03-06T08:51:41.982Z,26.3
2023-03-06T08:52:43.639Z,26.3
2023-03-06T08:53:45.386Z,26.3
2023-03-06T08:54:47.230Z,26.3
2023-03-06T08:55:49.109Z,26.3
2023-03-06T08:56:51.023Z,26.3
2023-03-06T08:57:52.881Z,26.4
2023-03-06T08:58:54.743Z,26.4
2023-03-06T08:59:56.560Z,26.3
2023-03-06T09:00:58.360Z,26.4
2023-03-06T09:02:00.718Z,26.4
2023-03-06T09:03:02.863Z,26.4
2023-03-06T09:04:04.673Z,26.4
2023-03-06T09:05:06.683Z,26.4
2023-03-06T09:06:08.701Z,26.4
2023-03-06T09:07:10.567Z,26.4
2023-03-06T09:08:12.405Z,26.4
2023-03-06T09:09:14.326Z,26.4
2023-03-06T09:10:16.280Z,26.4
2023-03-06T09:11:18.566Z,26.4
2023-03-06T09:12:20.734Z,26.4
2023-03-06T09:13:22.698Z,26.4
2023-03-06T09:14:24.535Z,26.4
2023-03-06T09:15:26.305Z,26.4
2023-03-06T09:16:28.313Z,26.4
2023-03-06T09:17:30.112Z,26.4
2023-03-06T09:18:32.103Z,26.4
2023-03-06T09:19:34.013Z,26.4
2023-03-06T09:20:35.833Z,26.4
2023-03-06T09:21:37.854Z,26.4
2023-03-06T09:22:39.678Z,26.4
2023-03-06T09:23:41.672Z,26.4
2023-03-06T09:24:43.555Z,26.4
2023-03-06T09:25:45.296Z,26.4
2023-03-06T09:26:48.866Z,26.5
2023-03-06T09:28:05.320Z,26.5
2023-03-06T09:29:13.858Z,26.5
2023-03-06T09:30:15.577Z,26.5
2023-03-06T09:31:17.549Z,26.5
2023-03-06T09:32:19.782Z,26.5
2023-03-06T09:33:21.887Z,26.5
2023-03-06T09:34:23.597Z,26.5
2023-03-06T09:35:25.546Z,26.5
2023-03-06T09:36:27.562Z,26.5
2023-03-06T09:37:29.320Z,26.5
2023-03-06T09:38:31.209Z,26.5
2023-03-06T09:39:33.011Z,26.5
2023-03-06T09:40:34.847Z,26.5
2023-03-06T09:41:36.719Z,26.5
2023-03-06T09:42:38.486Z,26.5
2023-03-06T09:43:40.137Z,26.5
2023-03-06T09:44:41.970Z,26.5
2023-03-06T09:45:43.840Z,26.5
2023-03-06T09:46:45.897Z,26.5
2023-03-06T09:47:47.788Z,26.5
2023-03-06T09:48:49.656Z,26.5
2023-03-06T09:49:51.502Z,26.5
2023-03-06T09:50:53.390Z,26.5
2023-03-06T09:51:55.410Z,26.5
2023-03-06T09:52:57.179Z,26.5
2023-03-06T09:53:59.069Z,26.6
2023-03-06T09:55:00.758Z,26.5
2023-03-06T09:56:02.495Z,26.5
2023-03-06T09:57:04.234Z,26.5
2023-03-06T09:58:07.480Z,26.5
2023-03-06T09:59:09.482Z,26.6
2023-03-06T10:00:11.284Z,26.6
2023-03-06T10:01:13.178Z,26.6
2023-03-06T10:02:15.216Z,26.6
2023-03-06T10:03:17.765Z,26.6
2023-03-06T10:04:20.273Z,26.6
2023-03-06T10:05:22.108Z,26.6
2023-03-06T10:06:24.151Z,26.6
2023-03-06T10:07:26.009Z,26.6
2023-03-06T10:08:27.873Z,26.7
2023-03-06T10:09:29.730Z,26.6
2023-03-06T10:10:31.559Z,26.7
2023-03-06T10:11:33.221Z,26.7
2023-03-06T10:12:35.080Z,26.7
2023-03-06T10:13:36.891Z,26.7
2023-03-06T10:14:38.685Z,26.7
2023-03-06T10:15:40.545Z,26.7
2023-03-06T10:16:42.571Z,26.6
2023-03-06T10:17:44.482Z,26.6
2023-03-06T10:18:46.262Z,26.7
2023-03-06T10:19:48.108Z,26.7
2023-03-06T10:20:49.981Z,26.7
2023-03-06T10:21:51.870Z,26.7
2023-03-06T10:23:00.963Z,26.7
2023-03-06T10:24:06.966Z,26.7
2023-03-06T10:25:08.887Z,26.7
2023-03-06T10:26:10.862Z,26.7
2023-03-06T10:27:12.902Z,26.7
2023-03-06T10:28:15.010Z,26.7
2023-03-06T10:29:16.856Z,26.7
2023-03-06T10:30:18.610Z,26.7
2023-03-06T10:31:20.397Z,26.7
2023-03-06T10:32:22.543Z,26.7
2023-03-06T10:33:24.560Z,26.7
2023-03-06T10:34:26.419Z,26.7
2023-03-06T10:35:30.421Z,26.7
2023-03-06T10:36:32.879Z,26.7
2023-03-06T10:37:34.663Z,26.7
2023-03-06T10:38:36.357Z,26.8
2023-03-06T10:39:38.013Z,26.8
2023-03-06T10:40:39.712Z,26.9
2023-03-06T10:41:41.623Z,26.9
2023-03-06T10:42:44.861Z,26.9
2023-03-06T10:43:46.749Z,26.9
2023-03-06T10:44:48.505Z,26.9
2023-03-06T10:45:50.398Z,26.9
2023-03-06T10:46:52.310Z,26.9
2023-03-06T10:47:53.995Z,26.9
2023-03-06T10:48:55.689Z,26.9
2023-03-06T10:49:57.450Z,26.9
2023-03-06T10:51:01.063Z,26.9
2023-03-06T10:52:20.297Z,26.9
2023-03-06T10:53:22.243Z,26.9
2023-03-06T10:54:23.904Z,26.9
2023-03-06T10:55:25.842Z,26.9
2023-03-06T10:56:27.680Z,26.9
2023-03-06T10:57:29.565Z,26.9
2023-03-06T10:58:31.374Z,26.9
2023-03-06T10:59:33.134Z,26.9
2023-03-06T11:00:35.002Z,26.9
2023-03-06T11:01:37.098Z,26.9
2023-03-06T11:02:39.211Z,27
2023-03-06T11:03:41.192Z,27
2023-03-06T11:04:43.083Z,26.9
2023-03-06T11:05:45.083Z,26.9
2023-03-06T11:06:46.799Z,27
2023-03-06T11:07:48.554Z,26.9
2023-03-06T11:08:50.306Z,26.9
2023-03-06T11:09:52.251Z,26.9
2023-03-06T11:10:54.094Z,26.9
2023-03-06T11:11:55.851Z,26.9
2023-03-06T11:12:57.745Z,27
2023-03-06T11:13:59.556Z,27
2023-03-06T11:15:01.441Z,26.9
2023-03-06T11:16:03.587Z,26.9
2023-03-06T11:17:05.719Z,26.9
2023-03-06T11:18:07.635Z,26.9
2023-03-06T11:19:09.521Z,26.8
2023-03-06T11:20:11.261Z,26.8
2023-03-06T11:21:13.020Z,26.8
2023-03-06T11:22:15.003Z,26.8
2023-03-06T11:23:16.923Z,26.8
2023-03-06T11:24:18.705Z,26.8
2023-03-06T11:25:20.779Z,26.8
2023-03-06T11:26:22.674Z,26.8
2023-03-06T11:27:24.530Z,26.8
2023-03-06T11:28:26.212Z,26.8
2023-03-06T11:29:29.318Z,26.8
2023-03-06T11:30:35.887Z,26.9
2023-03-06T11:31:37.858Z,26.9
2023-03-06T11:32:39.971Z,26.9
2023-03-06T11:33:42.088Z,26.8
2023-03-06T11:34:43.858Z,26.8
2023-03-06T11:35:45.656Z,26.8
2023-03-06T11:36:47.623Z,26.8
2023-03-06T11:37:49.478Z,26.8
2023-03-06T11:38:51.595Z,26.8
2023-03-06T11:39:53.507Z,26.8
2023-03-06T11:40:55.330Z,26.9
2023-03-06T11:41:57.154Z,26.8
2023-03-06T11:42:58.859Z,26.8
2023-03-06T11:44:00.811Z,26.8
2023-03-06T11:45:03.215Z,26.8
2023-03-06T11:46:05.630Z,26.8
2023-03-06T11:47:07.344Z,26.7
2023-03-06T11:48:09.182Z,26.8
2023-03-06T11:49:11.049Z,26.7
2023-03-06T11:50:12.797Z,26.8
2023-03-06T11:51:14.666Z,26.8
2023-03-06T11:52:16.535Z,26.8
2023-03-06T11:53:18.518Z,26.8
2023-03-06T11:54:20.428Z,26.8
2023-03-06T11:55:22.260Z,26.8
2023-03-06T11:56:24.117Z,26.8
2023-03-06T11:57:25.994Z,26.8
2023-03-06T11:58:27.800Z,26.8
2023-03-06T11:59:29.649Z,26.8
2023-03-06T12:00:31.532Z,26.8
2023-03-06T12:01:33.246Z,26.9
2023-03-06T12:02:35.010Z,26.9
2023-03-06T12:03:36.895Z,26.8
2023-03-06T12:04:38.819Z,26.8
2023-03-06T12:05:40.726Z,26.8
2023-03-06T12:06:42.878Z,26.8
2023-03-06T12:07:44.652Z,26.9
2023-03-06T12:08:46.512Z,26.9
2023-03-06T12:09:48.254Z,26.9
2023-03-06T12:10:51.386Z,26.9
2023-03-06T12:11:54.130Z,26.8
2023-03-06T12:12:56.015Z,26.8
2023-03-06T12:13:58.611Z,26.8
2023-03-06T12:15:05.692Z,26.9
2023-03-06T12:16:07.606Z,26.9
2023-03-06T12:17:09.767Z,26.9
2023-03-06T12:18:11.625Z,26.9
2023-03-06T12:19:13.404Z,26.9
2023-03-06T12:20:15.315Z,26.9
2023-03-06T12:21:17.389Z,26.9
2023-03-06T12:22:19.133Z,26.9
2023-03-06T12:23:20.970Z,26.9
2023-03-06T12:24:22.781Z,26.9
2023-03-06T12:25:24.531Z,26.9
2023-03-06T12:26:26.386Z,26.9
2023-03-06T12:27:28.300Z,26.9
2023-03-06T12:28:30.163Z,26.9
2023-03-06T12:29:31.922Z,26.9
2023-03-06T12:30:33.788Z,26.9
2023-03-06T12:31:35.419Z,27
2023-03-06T12:32:37.503Z,27
2023-03-06T12:33:39.619Z,27
2023-03-06T12:34:41.419Z,27
2023-03-06T12:35:43.418Z,27
2023-03-06T12:36:45.464Z,27
2023-03-06T12:37:47.318Z,27
2023-03-06T12:38:49.067Z,27
2023-03-06T12:39:50.930Z,27
2023-03-06T12:40:53.263Z,27
2023-03-06T12:41:55.150Z,27
2023-03-06T12:42:56.981Z,26.9
2023-03-06T12:43:58.833Z,26.9
2023-03-06T12:45:00.650Z,27
2023-03-06T12:46:02.899Z,27
2023-03-06T12:47:04.893Z,27
2023-03-06T12:48:06.670Z,26.9
2023-03-06T12:49:08.600Z,26.9
2023-03-06T12:50:10.366Z,26.9
2023-03-06T12:51:12.200Z,26.9
2023-03-06T12:52:18.507Z,26.9
2023-03-06T12:53:31.968Z,26.9
2023-03-06T12:54:34.000Z,26.9
2023-03-06T12:55:35.875Z,26.9
2023-03-06T12:56:37.731Z,26.9
2023-03-06T12:57:39.381Z,26.9
2023-03-06T12:58:41.295Z,26.9
2023-03-06T12:59:43.287Z,26.9
2023-03-06T13:00:46.081Z,27
2023-03-06T13:02:05.666Z,26.9
2023-03-06T13:03:07.768Z,26.9
2023-03-06T13:04:09.544Z,26.9
2023-03-06T13:05:11.364Z,26.9
2023-03-06T13:06:13.577Z,26.9
2023-03-06T13:07:15.578Z,26.8
2023-03-06T13:08:17.352Z,26.8
2023-03-06T13:09:19.180Z,26.8
2023-03-06T13:10:20.980Z,26.8
2023-03-06T13:11:22.903Z,26.8
2023-03-06T13:12:24.731Z,26.8
2023-03-06T13:13:26.698Z,26.7
2023-03-06T13:14:28.544Z,26.7
2023-03-06T13:15:30.602Z,26.7
2023-03-06T13:16:32.440Z,26.8
2023-03-06T13:17:34.496Z,26.8
2023-03-06T13:18:36.239Z,26.8
2023-03-06T13:19:38.095Z,26.8
2023-03-06T13:20:39.889Z,26.7
2023-03-06T13:21:41.679Z,26.7
2023-03-06T13:22:43.625Z,26.7
2023-03-06T13:23:45.340Z,26.8
2023-03-06T13:24:48.293Z,26.8
2023-03-06T13:26:09.760Z,26.8
2023-03-06T13:27:11.628Z,26.8
2023-03-06T13:28:13.544Z,26.8
2023-03-06T13:29:15.411Z,26.7
2023-03-06T13:30:17.380Z,26.8
2023-03-06T13:31:27.150Z,26.8
2023-03-06T13:32:30.181Z,26.8
2023-03-06T13:33:32.172Z,26.8
2023-03-06T13:34:33.994Z,26.8
2023-03-06T13:35:35.941Z,26.8
2023-03-06T13:36:39.778Z,26.8
2023-03-06T13:37:41.601Z,26.8
2023-03-06T13:38:43.379Z,26.8
2023-03-06T13:39:45.277Z,26.8
2023-03-06T13:40:47.211Z,26.8
2023-03-06T13:41:49.038Z,26.8
2023-03-06T13:42:50.939Z,26.7
2023-03-06T13:43:52.661Z,26.7
2023-03-06T13:44:54.569Z,26.7
2023-03-06T13:45:56.548Z,26.7
2023-03-06T13:46:58.765Z,26.7
2023-03-06T13:48:24.799Z,26.7
2023-03-06T13:49:47.605Z,26.7
2023-03-06T13:50:49.498Z,26.8
2023-03-06T13:51:51.403Z,26.8
2023-03-06T13:52:54.299Z,26.7
2023-03-06T13:53:57.101Z,26.7
2023-03-06T13:54:59.257Z,26.7